»·PEaware :: N805RJ F70-L52

N805RJ :: F70-L52

FLIGHT INFORMATION

Flight Status: Arrived
Operator: Privately registered:
United States
More flights under this callsign
Pilot: Rickie J. (22768)
Aircraft: CESSNA 172 SKYHAWK
(C172)
More flights by this aircraft type
Origin: F70 French Valley
United States
Destination: L52 Oceano Co
United States
More flights between these airports :: More routes between these airports
Route: HDF PDZ V186 HENER V27 FABEG
File this flight plan on PilotEdge
Remarks:
Altitude:
(Current/Filed)
6,500ft
Speed:
(Current/Filed)
120kts
Departed: 29-Dec-20 09:19 AM
Arrived: 29-Dec-20 11:15 AM
Distance/Time
Traveled:
196nm/1:56
Distance/Time
To Go:
Arrived

Flight Plot

Page will automatically refresh every two minutes.

Flight plan parsing failed; only flown route is shown


Map Options




Map Legend


Flown Route
Filed Route
Departure Airport
Arrival Airport
Navaid (VOR, NDB)
Fix

Horizontal Profiles

Position Reports

Time Latitude Longitude Heading Altitude Ground
Speed
29-Dec-20 08:23 33.575617 -117.130627 91 1354ft 0kts
29-Dec-20 08:24 33.575617 -117.130627 91 1354ft 0kts
29-Dec-20 08:25 33.575617 -117.130627 91 1354ft 0kts
29-Dec-20 08:26 33.575617 -117.130627 91 1354ft 0kts
29-Dec-20 08:27 33.575617 -117.130627 91 1354ft 0kts
29-Dec-20 08:28 33.575617 -117.130627 91 1354ft 0kts
29-Dec-20 08:29 33.575617 -117.130627 91 1354ft 0kts
29-Dec-20 08:30 33.575617 -117.130627 91 1354ft 0kts
29-Dec-20 08:31 33.575617 -117.130627 91 1354ft 0kts
29-Dec-20 08:32 33.575617 -117.130627 91 1354ft 0kts
29-Dec-20 08:33 33.575617 -117.130627 91 1354ft 0kts
29-Dec-20 08:35 33.575617 -117.130627 91 1354ft 0kts
29-Dec-20 08:36 33.575617 -117.130627 91 1354ft 0kts
29-Dec-20 08:37 33.575617 -117.130627 91 1354ft 0kts
29-Dec-20 08:38 33.575617 -117.130627 91 1354ft 0kts
29-Dec-20 08:39 33.575617 -117.130627 91 1354ft 0kts
29-Dec-20 08:40 33.575617 -117.130627 91 1354ft 0kts
29-Dec-20 08:41 33.575617 -117.130627 91 1354ft 0kts
29-Dec-20 08:42 33.575617 -117.130627 91 1354ft 0kts
29-Dec-20 08:43 33.575617 -117.130627 91 1354ft 0kts
29-Dec-20 08:44 33.575617 -117.130627 91 1354ft 0kts
29-Dec-20 08:45 33.575617 -117.130627 91 1354ft 0kts
29-Dec-20 08:46 33.575617 -117.130627 91 1354ft 0kts
29-Dec-20 08:47 33.575617 -117.130627 91 1354ft 0kts
29-Dec-20 08:48 33.575617 -117.130627 91 1354ft 0kts
29-Dec-20 08:49 33.575617 -117.130627 91 1354ft 0kts
29-Dec-20 08:49 33.575617 -117.130627 91 1354ft 0kts
29-Dec-20 08:51 33.575617 -117.130627 91 1354ft 0kts
29-Dec-20 08:52 33.575617 -117.130627 91 1354ft 0kts
29-Dec-20 08:52 33.575617 -117.130627 91 1354ft 0kts
29-Dec-20 08:54 33.575617 -117.130627 91 1354ft 0kts
29-Dec-20 08:54 33.575617 -117.130627 91 1354ft 0kts
29-Dec-20 08:55 33.575617 -117.130627 91 1354ft 0kts
29-Dec-20 08:56 33.575617 -117.130627 91 1354ft 0kts
29-Dec-20 08:57 33.575617 -117.130627 91 1354ft 0kts
29-Dec-20 08:58 33.575617 -117.130627 91 1354ft 0kts
29-Dec-20 08:59 33.575617 -117.130627 91 1354ft 0kts
29-Dec-20 09:00 33.575617 -117.130627 91 1354ft 0kts
29-Dec-20 09:01 33.575617 -117.130627 91 1354ft 0kts
29-Dec-20 09:02 33.575617 -117.130627 91 1354ft 0kts
29-Dec-20 09:03 33.575617 -117.130627 91 1354ft 0kts
29-Dec-20 09:04 33.575617 -117.130627 91 1354ft 0kts
29-Dec-20 09:05 33.575617 -117.130627 91 1354ft 0kts
29-Dec-20 09:06 33.575617 -117.130627 91 1354ft 0kts
29-Dec-20 09:07 33.575617 -117.130627 91 1354ft 0kts
29-Dec-20 09:08 33.575617 -117.130627 91 1354ft 0kts
29-Dec-20 09:09 33.575617 -117.130627 91 1354ft 0kts
29-Dec-20 09:10 33.575521 -117.130434 125 1354ft 2kts
29-Dec-20 09:11 33.575684 -117.128906 11 1354ft 7kts
29-Dec-20 09:12 33.578303 -117.128211 12 1354ft 11kts
29-Dec-20 09:13 33.581673 -117.127437 352 1354ft 13kts
29-Dec-20 09:14 33.582356 -117.127505 66 1354ft 0kts
29-Dec-20 09:15 33.582356 -117.127505 66 1354ft 0kts
29-Dec-20 09:16 33.582349 -117.127302 101 1354ft 3kts
29-Dec-20 09:17 33.582280 -117.126967 102 1354ft 1kts
29-Dec-20 09:18 33.579127 -117.127187 190 1354ft 62kts
29-Dec-20 09:19 33.554308 -117.133609 190 1883ft 91kts
29-Dec-20 09:20 33.530676 -117.138890 188 2608ft 86kts
29-Dec-20 09:21 33.506664 -117.143739 188 3350ft 86kts
29-Dec-20 09:22 33.504108 -117.162918 340 4069ft 102kts
29-Dec-20 09:23 33.533322 -117.157625 10 4669ft 109kts
29-Dec-20 09:24 33.563063 -117.149730 15 5269ft 109kts
29-Dec-20 09:25 33.591984 -117.139826 9 5896ft 106kts
29-Dec-20 09:26 33.621060 -117.142130 343 6406ft 107kts
29-Dec-20 09:27 33.652893 -117.150715 342 6507ft 126kts
29-Dec-20 09:28 33.687563 -117.160418 342 6501ft 128kts
29-Dec-20 09:29 33.722994 -117.170414 342 6499ft 129kts
29-Dec-20 09:30 33.758385 -117.180280 343 6513ft 130kts
29-Dec-20 09:31 33.784194 -117.205860 295 6501ft 122kts
29-Dec-20 09:32 33.799843 -117.242444 293 6500ft 123kts
29-Dec-20 09:33 33.815088 -117.279260 293 6500ft 121kts
29-Dec-20 09:34 33.830044 -117.316103 293 6495ft 124kts
29-Dec-20 09:35 33.845604 -117.353318 293 6501ft 123kts
29-Dec-20 09:36 33.860800 -117.390150 292 6503ft 122kts
29-Dec-20 09:37 33.876020 -117.427133 293 6478ft 123kts
29-Dec-20 09:38 33.891198 -117.464043 292 6495ft 121kts
29-Dec-20 09:39 33.906197 -117.500611 292 6503ft 122kts
29-Dec-20 09:40 33.920890 -117.537705 289 6502ft 122kts
29-Dec-20 09:41 33.934193 -117.575265 289 6503ft 122kts
29-Dec-20 09:42 33.947475 -117.612890 289 6500ft 122kts
29-Dec-20 09:43 33.960849 -117.650838 288 6501ft 123kts
29-Dec-20 09:44 33.974226 -117.688802 288 6507ft 123kts
29-Dec-20 09:45 33.987546 -117.726607 288 6503ft 125kts
29-Dec-20 09:46 34.000530 -117.764351 286 6504ft 123kts
29-Dec-20 09:47 34.012214 -117.801857 286 6506ft 123kts
29-Dec-20 09:48 34.023554 -117.838377 286 6510ft 121kts
29-Dec-20 09:49 34.034568 -117.874036 286 6507ft 121kts
29-Dec-20 09:50 34.045683 -117.910062 286 6508ft 121kts
29-Dec-20 09:51 34.056932 -117.946546 285 6506ft 121kts
29-Dec-20 09:52 34.068341 -117.983650 285 6503ft 121kts
29-Dec-20 09:53 34.079927 -118.021322 286 6505ft 121kts
29-Dec-20 09:54 34.091494 -118.058963 286 6508ft 121kts
29-Dec-20 09:55 34.103031 -118.096560 286 6503ft 121kts
29-Dec-20 09:56 34.114343 -118.133531 286 6505ft 121kts
29-Dec-20 09:57 34.125673 -118.170615 286 6507ft 121kts
29-Dec-20 09:58 34.137332 -118.208745 286 6491ft 123kts
29-Dec-20 09:59 34.149412 -118.248376 286 6478ft 126kts
29-Dec-20 10:00 34.161638 -118.288485 287 6479ft 127kts
29-Dec-20 10:01 34.173860 -118.328644 287 6499ft 126kts
29-Dec-20 10:02 34.186033 -118.368701 287 6499ft 127kts
29-Dec-20 10:03 34.198222 -118.408858 287 6513ft 125kts
29-Dec-20 10:04 34.210326 -118.448811 287 6498ft 127kts
29-Dec-20 10:05 34.222574 -118.489095 288 6502ft 127kts
29-Dec-20 10:06 34.236126 -118.528916 289 6499ft 127kts
29-Dec-20 10:07 34.249779 -118.568639 291 6509ft 128kts
29-Dec-20 10:08 34.263500 -118.608706 290 6497ft 128kts
29-Dec-20 10:09 34.276991 -118.648256 289 6493ft 124kts
29-Dec-20 10:10 34.290208 -118.686792 290 6502ft 123kts
29-Dec-20 10:11 34.303315 -118.725126 290 6499ft 123kts
29-Dec-20 10:12 34.316443 -118.763567 290 6502ft 123kts
29-Dec-20 10:13 34.329520 -118.801928 290 6501ft 123kts
29-Dec-20 10:14 34.342577 -118.840250 289 6526ft 123kts
29-Dec-20 10:15 34.354678 -118.879271 271 6526ft 122kts
29-Dec-20 10:16 34.353283 -118.920344 263 6522ft 122kts
29-Dec-20 10:17 34.350572 -118.961772 263 6504ft 122kts
29-Dec-20 10:18 34.347786 -119.002744 262 6501ft 124kts
29-Dec-20 10:19 34.344560 -119.044233 263 6504ft 123kts
29-Dec-20 10:21 34.341691 -119.085682 263 6492ft 123kts
29-Dec-20 10:22 34.338549 -119.126797 262 6502ft 122kts
29-Dec-20 10:23 34.335319 -119.167964 262 6506ft 122kts
29-Dec-20 10:24 34.332313 -119.209355 262 6507ft 122kts
29-Dec-20 10:25 34.329210 -119.250192 262 6501ft 120kts
29-Dec-20 10:26 34.326121 -119.290611 262 6506ft 120kts
29-Dec-20 10:27 34.323038 -119.331288 262 6505ft 120kts
29-Dec-20 10:28 34.319926 -119.371920 262 6502ft 121kts
29-Dec-20 10:29 34.316789 -119.412737 262 6498ft 121kts
29-Dec-20 10:30 34.313639 -119.453560 261 6504ft 120kts
29-Dec-20 10:31 34.310714 -119.494424 261 6505ft 120kts
29-Dec-20 10:32 34.307363 -119.535260 262 6504ft 121kts
29-Dec-20 10:33 34.304145 -119.576014 262 6505ft 121kts
29-Dec-20 10:34 34.315558 -119.615461 290 6503ft 124kts
29-Dec-20 10:35 34.329159 -119.654488 289 6506ft 125kts
29-Dec-20 10:36 34.342851 -119.693755 289 6507ft 126kts
29-Dec-20 10:36 34.354278 -119.726518 290 6504ft 126kts
29-Dec-20 10:38 34.370282 -119.772376 290 6504ft 126kts
29-Dec-20 10:39 34.384001 -119.811718 290 6504ft 126kts
29-Dec-20 10:39 34.395458 -119.844571 290 6505ft 126kts
29-Dec-20 10:40 34.409200 -119.884025 290 6503ft 126kts
29-Dec-20 10:41 34.422937 -119.923509 290 6505ft 126kts
29-Dec-20 10:42 34.436737 -119.963175 288 6511ft 126kts
29-Dec-20 10:43 34.450915 -120.002735 296 6506ft 127kts
29-Dec-20 10:44 34.474091 -120.035747 315 6505ft 130kts
29-Dec-20 10:45 34.501994 -120.063873 320 6508ft 129kts
29-Dec-20 10:46 34.530661 -120.090567 321 6508ft 129kts
29-Dec-20 10:47 34.559565 -120.117200 321 6507ft 130kts
29-Dec-20 10:48 34.588653 -120.143824 320 6499ft 131kts
29-Dec-20 10:49 34.617745 -120.170590 321 6507ft 130kts
29-Dec-20 10:50 34.646640 -120.197246 321 6505ft 130kts
29-Dec-20 10:51 34.675517 -120.223838 320 6508ft 129kts
29-Dec-20 10:52 34.705002 -120.250894 320 6165ft 131kts
29-Dec-20 10:53 34.734647 -120.278230 321 5779ft 135kts
29-Dec-20 10:54 34.764615 -120.305859 320 5370ft 131kts
29-Dec-20 10:55 34.793153 -120.332226 319 4964ft 126kts
29-Dec-20 10:56 34.820902 -120.357904 320 4559ft 123kts
29-Dec-20 10:57 34.846675 -120.381738 320 4147ft 111kts
29-Dec-20 10:58 34.871035 -120.404311 320 3739ft 108kts
29-Dec-20 10:59 34.895028 -120.426554 321 3336ft 107kts
29-Dec-20 11:00 34.917485 -120.447389 321 3124ft 98kts
29-Dec-20 11:01 34.938703 -120.467083 320 2988ft 90kts
29-Dec-20 11:02 34.959425 -120.486392 321 3030ft 105kts
29-Dec-20 11:03 34.980354 -120.505768 320 2767ft 76kts
29-Dec-20 11:04 34.996636 -120.520966 320 2359ft 76kts
29-Dec-20 11:05 35.014556 -120.537934 321 1955ft 84kts
29-Dec-20 11:06 35.031283 -120.558329 303 1552ft 86kts
29-Dec-20 11:07 35.043212 -120.581251 300 1152ft 78kts
29-Dec-20 11:08 35.053828 -120.602615 314 981ft 64kts
29-Dec-20 11:09 35.071137 -120.609487 340 990ft 67kts
29-Dec-20 11:10 35.083939 -120.624158 303 970ft 66kts
29-Dec-20 11:11 35.093945 -120.643421 304 870ft 66kts
29-Dec-20 11:12 35.108241 -120.648244 49 687ft 76kts
29-Dec-20 11:13 35.101974 -120.623199 119 18ft 64kts
29-Dec-20 11:14 35.099652 -120.619700 278 18ft 0kts
29-Dec-20 11:15 35.099682 -120.619837 297 18ft 2kts
29-Dec-20 11:16 35.100563 -120.621489 304 18ft 8kts
29-Dec-20 11:17 35.102062 -120.622421 311 18ft 8kts
29-Dec-20 11:18 35.103509 -120.625140 301 18ft 2kts
29-Dec-20 11:19 35.103935 -120.625293 32 18ft 0kts
29-Dec-20 11:20 35.103935 -120.625294 32 18ft 0kts
29-Dec-20 11:21 35.103935 -120.625294 32 18ft 0kts
29-Dec-20 11:22 35.103935 -120.625294 32 18ft 0kts
29-Dec-20 11:23 35.103935 -120.625294 32 18ft 0kts

Navigation Log

Ident Type
Flight plan parsing failed, navigation log unavailable